Current Weather



TAF Data Links

METAR Data Links

Latest METAR/TAF Data


Available data for KAUS from the past 2 hours
AUSTIN, TX
Metar
KAUS 190053Z 14007KT 10SM BKN250 32/23 A2983 RMK AO2 SLP090 T03170233

00:53 UTC

Wind: 140° 7kt

Visibility: 10 SM

Sky: BKN 25000 ft

Temp: 32 deg C / 89.6 deg F

Dewpoint: 23 deg C / 73.4 deg F

Pressure: 29.83 inHg

TAF
KAUS 182324Z 1900/2006 18007KT P6SM FEW060 FEW250 FM191000 20008KT P6SM BKN012 FM191500 19014KT P6SM FEW060 FEW250


Available data for KEDC from the past 2 hours
AUSTIN EXEC, TX
Metar
KEDC 190115Z AUTO 15004KT 10SM CLR 29/23 A2985 RMK AO2

01:15 UTC

Wind: 150° 4kt

Visibility: 10 SM

Sky:

Temp: 29 deg C / 84.2 deg F

Dewpoint: 23 deg C / 73.4 deg F

Pressure: 29.85 inHg



Available data for KRYW from the past 2 hours
LAGO VISTA, TX
Metar
KRYW 190115Z AUTO 15004KT 10SM CLR 29/22 A2987 RMK AO2 T02880220

01:15 UTC

Wind: 150° 4kt

Visibility: 10 SM

Sky:

Temp: 29 deg C / 84.2 deg F

Dewpoint: 22 deg C / 71.6 deg F

Pressure: 29.87 inHg